Time;durP1;ratioP1;P1;durP2;ratioP2;P2;SDS_P1;SDS_P2;PMS_P1;PMS_P2;Temp;Humidity;BMP_temperature;BMP_pressure;BME280_temperature;BME280_humidity;BME280_pressure;Samples;Min_cycle;Max_cycle;Signal;HPM_P1;HPM_P2
2021/12/04 00:00:35;;;;;;;;;;;;;;;4.52;100.00;97612.53;5000003;28;20442;-66
2021/12/04 00:03:00;;;;;;;;;;;;;;;4.32;100.00;97620.75;5000144;28;20019;-66
2021/12/04 00:05:26;;;;;;;;;;;;;;;4.42;100.00;97613.69;5002165;28;20343;-66
2021/12/04 00:07:51;;;;;;;;;;;;;;;4.57;100.00;97624.25;5002011;28;19981;-67
2021/12/04 00:10:20;;;;;;;;;;;;;;;4.57;100.00;97611.50;5002161;28;20004;-66
2021/12/04 00:12:46;;;;;;;;;;;;;;;4.45;100.00;97611.88;5001152;28;19922;-66
2021/12/04 00:15:11;;;;;;;;;;;;;;;4.26;100.00;97601.38;5001283;28;19924;-67
2021/12/04 00:17:37;;;;;;;;;;;;;;;4.40;100.00;97606.06;5001719;28;20031;-67
2021/12/04 00:20:03;;;;;;;;;;;;;;;4.14;100.00;97606.84;5002066;28;19936;-67
2021/12/04 00:22:28;;;;;;;;;;;;;;;4.46;100.00;97598.25;5000535;28;20597;-67
2021/12/04 00:24:54;;;;;;;;;;;;;;;4.38;100.00;97600.22;5001577;28;19921;-66
2021/12/04 00:27:19;;;;;;;;;;;;;;;4.30;100.00;97597.03;5001695;28;19940;-66
2021/12/04 00:29:44;;;;;;;;;;;;;;;4.39;100.00;97597.59;4999520;28;19921;-67
2021/12/04 00:32:27;;;;;;;;;;;;;;;4.45;100.00;97596.59;5001777;28;19918;-66
2021/12/04 00:35:07;;;;;;;;;;;;;;;4.23;100.00;97585.34;5001748;28;20003;-67
2021/12/04 00:37:50;;;;;;;;;;;;;;;4.25;100.00;97583.59;4999989;28;20414;-67
2021/12/04 00:43:23;;;;;;;;;;;;;;;4.48;100.00;97588.84;5001256;28;19921;-66
2021/12/04 00:51:18;;;;;;;;;;;;;;;4.38;100.00;97572.16;5002912;28;19925;-65
2021/12/04 00:53:43;;;;;;;;;;;;;;;4.28;100.00;97563.13;4988548;28;19918;-65
2021/12/04 00:56:09;;;;;;;;;;;;;;;4.07;100.00;97565.41;4999803;28;19933;-66
2021/12/04 00:58:34;;;;;;;;;;;;;;;4.59;100.00;97568.94;5002443;28;19920;-66
2021/12/04 01:00:59;;;;;;;;;;;;;;;4.34;100.00;97562.94;5002134;28;20217;-67
2021/12/04 01:03:25;;;;;;;;;;;;;;;4.25;100.00;97566.59;5002048;28;19917;-64
2021/12/04 01:05:50;;;;;;;;;;;;;;;4.52;100.00;97559.84;5001997;28;19914;-66
2021/12/04 01:08:16;;;;;;;;;;;;;;;4.30;100.00;97551.16;5002166;28;19917;-66
2021/12/04 01:10:41;;;;;;;;;;;;;;;4.21;100.00;97556.53;5001473;28;19921;-65
2021/12/04 01:13:11;;;;;;;;;;;;;;;4.06;100.00;97548.47;4987390;28;20098;-66
2021/12/04 01:15:40;;;;;;;;;;;;;;;4.22;100.00;97559.06;5001538;28;20098;-65
2021/12/04 01:18:05;;;;;;;;;;;;;;;4.15;100.00;97555.00;5001862;28;19917;-65
2021/12/04 01:20:30;;;;;;;;;;;;;;;4.36;100.00;97554.38;5001979;28;19917;-65
2021/12/04 01:22:56;;;;;;;;;;;;;;;4.03;100.00;97547.72;5002047;28;19925;-66
2021/12/04 01:25:21;;;;;;;;;;;;;;;4.27;100.00;97546.19;5000876;28;20594;-67
2021/12/04 01:27:47;;;;;;;;;;;;;;;4.16;100.00;97549.03;5002582;28;20351;-66
2021/12/04 01:30:12;;;;;;;;;;;;;;;4.38;100.00;97554.34;5001534;28;20375;-66
2021/12/04 01:32:38;;;;;;;;;;;;;;;4.35;100.00;97554.41;5001815;28;20248;-66
2021/12/04 01:35:04;;;;;;;;;;;;;;;4.53;100.00;97553.84;4986690;28;21054;-66
2021/12/04 01:37:29;;;;;;;;;;;;;;;4.45;100.00;97555.81;5000422;28;19918;-67
2021/12/04 01:39:55;;;;;;;;;;;;;;;4.46;100.00;97556.63;5000224;28;19932;-65
2021/12/04 01:42:32;;;;;;;;;;;;;;;4.49;100.00;97552.25;5001142;28;19959;-66
2021/12/04 01:44:57;;;;;;;;;;;;;;;4.36;100.00;97551.00;5000729;28;20426;-66
2021/12/04 01:47:23;;;;;;;;;;;;;;;4.21;100.00;97547.19;5001665;28;20016;-65
2021/12/04 01:49:49;;;;;;;;;;;;;;;4.42;100.00;97545.69;5001613;28;19949;-65
2021/12/04 01:52:17;;;;;;;;;;;;;;;4.30;100.00;97546.06;5001311;28;19989;-66
2021/12/04 01:54:43;;;;;;;;;;;;;;;4.36;100.00;97535.69;4999388;28;20290;-66
2021/12/04 01:57:08;;;;;;;;;;;;;;;4.37;100.00;97545.00;5000715;28;19918;-65
2021/12/04 01:59:36;;;;;;;;;;;;;;;4.29;100.00;97539.28;5000535;28;19924;-66
2021/12/04 02:02:02;;;;;;;;;;;;;;;4.54;100.00;97540.22;5006717;28;20334;-66
2021/12/04 02:04:34;;;;;;;;;;;;;;;4.50;100.00;97538.66;5000840;28;19929;-66
2021/12/04 02:07:04;;;;;;;;;;;;;;;4.59;100.00;97538.34;5000635;28;20100;-66
2021/12/04 02:09:32;;;;;;;;;;;;;;;4.41;100.00;97526.19;5000209;28;19940;-67
2021/12/04 02:11:58;;;;;;;;;;;;;;;4.74;100.00;97518.34;4998493;28;20383;-67
2021/12/04 02:14:24;;;;;;;;;;;;;;;4.63;100.00;97518.72;5000012;28;19913;-67
2021/12/04 02:16:50;;;;;;;;;;;;;;;4.30;100.00;97510.41;4999525;28;20294;-67
2021/12/04 02:19:16;;;;;;;;;;;;;;;4.35;100.00;97523.81;5000104;28;19921;-66
2021/12/04 02:21:41;;;;;;;;;;;;;;;4.52;100.00;97511.41;4999965;28;19918;-67
2021/12/04 02:24:07;;;;;;;;;;;;;;;4.74;100.00;97511.53;4999296;28;19976;-67
2021/12/04 02:26:32;;;;;;;;;;;;;;;4.21;100.00;97497.94;5000328;28;19914;-67
2021/12/04 02:28:58;;;;;;;;;;;;;;;4.60;100.00;97504.31;4995807;28;19917;-67
2021/12/04 02:31:24;;;;;;;;;;;;;;;4.40;100.00;97502.41;4999230;28;19913;-67
2021/12/04 02:33:53;;;;;;;;;;;;;;;4.63;100.00;97497.47;4999281;28;19921;-67
2021/12/04 02:36:18;;;;;;;;;;;;;;;4.88;100.00;97488.13;4999150;28;19925;-67
2021/12/04 02:38:49;;;;;;;;;;;;;;;4.39;100.00;97482.91;4997498;28;21090;-67
2021/12/04 02:41:14;;;;;;;;;;;;;;;4.15;100.00;97484.50;4999312;28;20284;-66
2021/12/04 02:43:40;;;;;;;;;;;;;;;4.40;100.00;97487.13;5003607;28;19921;-66
2021/12/04 02:46:05;;;;;;;;;;;;;;;4.68;100.00;97490.50;5002302;28;19925;-66
2021/12/04 02:48:31;;;;;;;;;;;;;;;4.58;100.00;97495.91;5002767;28;20290;-66
2021/12/04 02:50:56;;;;;;;;;;;;;;;4.56;100.00;97492.56;5002838;28;19994;-67
2021/12/04 02:53:24;;;;;;;;;;;;;;;4.31;100.00;97491.66;5001531;28;20008;-66
2021/12/04 02:55:50;;;;;;;;;;;;;;;4.34;100.00;97491.59;5002554;28;21003;-67
2021/12/04 02:58:16;;;;;;;;;;;;;;;4.34;100.00;97492.41;5002015;28;19917;-66
2021/12/04 03:00:47;;;;;;;;;;;;;;;4.54;100.00;97489.25;5001715;28;19913;-66
2021/12/04 03:03:13;;;;;;;;;;;;;;;4.38;100.00;97476.16;5002587;28;20545;-66
2021/12/04 03:05:39;;;;;;;;;;;;;;;4.23;100.00;97468.97;5000295;28;19921;-66
2021/12/04 03:08:06;;;;;;;;;;;;;;;4.45;100.00;97476.78;5002972;28;20730;-66
2021/12/04 03:10:32;;;;;;;;;;;;;;;4.52;100.00;97465.50;5001213;28;19925;-66
2021/12/04 03:12:57;;;;;;;;;;;;;;;4.62;100.00;97460.94;5002946;28;19928;-67
2021/12/04 03:15:23;;;;;;;;;;;;;;;4.34;100.00;97450.81;5001310;28;19922;-66
2021/12/04 03:17:49;;;;;;;;;;;;;;;4.22;100.00;97451.19;4999626;28;19925;-66
2021/12/04 03:20:14;;;;;;;;;;;;;;;4.36;100.00;97446.50;5001670;28;19933;-66
2021/12/04 03:22:41;;;;;;;;;;;;;;;4.37;100.00;97446.44;5002830;28;20016;-66
2021/12/04 03:25:06;;;;;;;;;;;;;;;4.17;100.00;97436.03;5001790;28;19921;-66
2021/12/04 03:27:33;;;;;;;;;;;;;;;4.49;100.00;97440.09;5002988;28;19918;-66
2021/12/04 03:30:04;;;;;;;;;;;;;;;4.55;100.00;97429.72;5001870;28;19922;-66
2021/12/04 03:42:48;;;;;;;;;;;;;;;4.51;100.00;97428.13;5000416;28;19925;-67
2021/12/04 03:45:14;;;;;;;;;;;;;;;4.09;100.00;97407.44;5000395;28;19929;-67
2021/12/04 03:47:44;;;;;;;;;;;;;;;4.50;100.00;97416.28;5001652;28;19917;-67
2021/12/04 03:50:09;;;;;;;;;;;;;;;4.36;100.00;97414.19;5001929;28;19928;-67
2021/12/04 03:52:36;;;;;;;;;;;;;;;4.36;100.00;97408.28;5001880;28;19921;-67
2021/12/04 03:55:03;;;;;;;;;;;;;;;4.34;100.00;97408.31;5000790;28;20961;-67
2021/12/04 03:57:29;;;;;;;;;;;;;;;4.26;100.00;97414.53;5002138;28;19913;-67
2021/12/04 03:59:54;;;;;;;;;;;;;;;4.24;100.00;97418.84;5002519;28;19913;-67
2021/12/04 04:02:23;;;;;;;;;;;;;;;4.25;100.00;97403.50;4985160;28;20020;-66
2021/12/04 04:04:48;;;;;;;;;;;;;;;4.21;100.00;97408.75;5002501;28;19922;-67
2021/12/04 04:07:14;;;;;;;;;;;;;;;3.97;100.00;97414.59;5000906;28;19920;-67
2021/12/04 04:09:39;;;;;;;;;;;;;;;4.28;100.00;97410.22;5000627;28;19984;-66
2021/12/04 04:12:05;;;;;;;;;;;;;;;4.26;100.00;97414.53;5002071;28;20298;-67
2021/12/04 04:14:30;;;;;;;;;;;;;;;4.12;100.00;97415.81;5001768;28;20411;-67
2021/12/04 04:16:57;;;;;;;;;;;;;;;4.29;100.00;97424.63;5001392;28;20611;-67
2021/12/04 04:19:22;;;;;;;;;;;;;;;4.07;100.00;97412.56;5000666;28;19925;-67
2021/12/04 04:21:52;;;;;;;;;;;;;;;4.23;100.00;97420.56;5001549;28;19947;-67
2021/12/04 04:24:18;;;;;;;;;;;;;;;4.30;100.00;97414.38;5001651;28;19918;-67
2021/12/04 04:26:44;;;;;;;;;;;;;;;4.28;100.00;97412.78;5002028;28;20390;-66
2021/12/04 04:29:10;;;;;;;;;;;;;;;4.43;100.00;97419.94;5001281;28;20271;-67
2021/12/04 04:31:36;;;;;;;;;;;;;;;4.42;100.00;97413.16;4998599;28;19921;-67
2021/12/04 04:34:05;;;;;;;;;;;;;;;4.21;100.00;97417.22;5000615;28;19921;-67
2021/12/04 04:58:08;;;;;;;;;;;;;;;4.41;100.00;97378.38;4993966;28;20433;-67
2021/12/04 05:00:53;;;;;;;;;;;;;;;4.61;100.00;97364.94;4999407;28;19921;-66
2021/12/04 05:11:41;;;;;;;;;;;;;;;4.18;100.00;97359.56;5007910;28;19975;-66
2021/12/04 05:14:06;;;;;;;;;;;;;;;4.32;100.00;97350.63;5007670;28;19917;-66
2021/12/04 05:16:43;;;;;;;;;;;;;;;4.55;100.00;97349.84;5008283;28;19918;-67
2021/12/04 05:19:37;;;;;;;;;;;;;;;4.56;100.00;97349.81;5008042;28;19913;-66
2021/12/04 05:22:02;;;;;;;;;;;;;;;4.60;100.00;97343.69;5008136;28;19913;-66
2021/12/04 05:24:28;;;;;;;;;;;;;;;4.36;100.00;97342.84;5008076;28;19929;-67
2021/12/04 05:26:53;;;;;;;;;;;;;;;4.76;100.00;97345.72;5008503;28;19959;-66
2021/12/04 05:29:18;;;;;;;;;;;;;;;4.26;100.00;97336.38;5006395;28;20734;-66
2021/12/04 05:31:44;;;;;;;;;;;;;;;4.23;100.00;97335.66;5008323;28;19917;-67
2021/12/04 05:34:09;;;;;;;;;;;;;;;4.63;100.00;97344.47;5006115;28;19924;-66
2021/12/04 05:36:35;;;;;;;;;;;;;;;4.63;100.00;97339.38;5007679;28;19921;-66
2021/12/04 05:39:00;;;;;;;;;;;;;;;4.38;100.00;97330.06;5006894;28;19968;-66
2021/12/04 05:41:26;;;;;;;;;;;;;;;4.51;100.00;97333.81;5007296;28;20051;-66
2021/12/04 05:43:51;;;;;;;;;;;;;;;4.51;100.00;97345.75;5001494;28;19976;-66
2021/12/04 05:46:19;;;;;;;;;;;;;;;4.49;100.00;97343.22;5007584;28;19917;-66
2021/12/04 05:51:31;;;;;;;;;;;;;;;4.89;100.00;97334.19;5007840;28;20348;-66
2021/12/04 05:57:01;;;;;;;;;;;;;;;4.59;100.00;97326.75;4989886;28;20214;-68
2021/12/04 05:59:29;;;;;;;;;;;;;;;4.50;100.00;97329.63;4986596;28;19924;-66
2021/12/04 06:01:55;;;;;;;;;;;;;;;4.36;100.00;97327.53;5002994;28;19925;-66
2021/12/04 06:04:20;;;;;;;;;;;;;;;4.48;100.00;97316.09;4984119;28;19929;-66
2021/12/04 06:06:46;;;;;;;;;;;;;;;4.56;100.00;97319.22;5001071;28;19917;-66
2021/12/04 06:09:11;;;;;;;;;;;;;;;4.64;100.00;97325.75;4999672;28;19957;-66
2021/12/04 06:11:36;;;;;;;;;;;;;;;4.65;100.00;97315.50;4983566;28;19917;-67
2021/12/04 06:14:02;;;;;;;;;;;;;;;4.42;100.00;97313.75;4999469;28;19928;-67
2021/12/04 06:16:28;;;;;;;;;;;;;;;4.53;100.00;97311.66;5001852;28;19917;-66
2021/12/04 06:18:54;;;;;;;;;;;;;;;4.30;100.00;97311.63;4983289;28;19989;-66
2021/12/04 06:24:06;;;;;;;;;;;;;;;4.69;100.00;97314.50;4999634;28;20045;-66
2021/12/04 06:26:32;;;;;;;;;;;;;;;4.72;100.00;97305.91;5000720;28;19948;-66
2021/12/04 06:28:58;;;;;;;;;;;;;;;4.54;100.00;97304.88;5014023;23;19933;-79
2021/12/04 06:31:24;;;;;;;;;;;;;;;4.42;100.00;97301.00;5042862;28;19925;-80
2021/12/04 06:33:50;;;;;;;;;;;;;;;4.45;100.00;97306.00;5043343;28;19916;-80
2021/12/04 06:36:15;;;;;;;;;;;;;;;4.60;100.00;97305.44;5032599;28;20846;-78
2021/12/04 06:38:41;;;;;;;;;;;;;;;4.70;100.00;97308.53;5027802;28;19921;-79
2021/12/04 06:41:06;;;;;;;;;;;;;;;4.35;100.00;97299.56;5027882;28;20023;-78
2021/12/04 06:43:32;;;;;;;;;;;;;;;4.68;100.00;97304.38;5031090;28;19943;-77
2021/12/04 06:46:02;;;;;;;;;;;;;;;4.40;100.00;97308.72;5028675;28;20406;-78
2021/12/04 06:48:36;;;;;;;;;;;;;;;4.19;100.00;97300.06;5035266;28;19935;-77
2021/12/04 06:54:02;;;;;;;;;;;;;;;4.48;100.00;97305.91;5020839;28;19929;-76
2021/12/04 06:56:34;;;;;;;;;;;;;;;4.66;100.00;97303.59;5032500;28;20314;-76
2021/12/04 06:59:02;;;;;;;;;;;;;;;4.40;100.00;97302.78;5028178;28;20302;-77
2021/12/04 07:01:28;;;;;;;;;;;;;;;4.25;100.00;97305.88;5013871;28;19917;-77
2021/12/04 07:03:53;;;;;;;;;;;;;;;4.34;100.00;97311.47;5030654;28;20568;-77
2021/12/04 07:06:18;;;;;;;;;;;;;;;4.37;100.00;97315.63;5012412;28;20666;-76
2021/12/04 07:08:44;;;;;;;;;;;;;;;4.43;100.00;97307.78;5029973;28;19921;-77
2021/12/04 07:11:09;;;;;;;;;;;;;;;4.56;100.00;97303.06;5031178;28;20346;-76
2021/12/04 07:13:35;;;;;;;;;;;;;;;4.83;100.00;97303.81;5031155;28;20301;-76
2021/12/04 07:16:05;;;;;;;;;;;;;;;4.65;100.00;97291.72;5033271;28;20274;-76
2021/12/04 07:18:31;;;;;;;;;;;;;;;5.23;100.00;97298.06;5031335;28;19916;-77
2021/12/04 07:20:56;;;;;;;;;;;;;;;4.74;100.00;97291.38;5030466;28;19920;-77
2021/12/04 07:23:21;;;;;;;;;;;;;;;4.61;100.00;97296.94;5029991;28;19913;-76
2021/12/04 07:25:47;;;;;;;;;;;;;;;4.77;100.00;97292.13;5030983;28;19917;-76
2021/12/04 07:28:12;;;;;;;;;;;;;;;5.03;100.00;97283.50;5008428;28;19917;-76
2021/12/04 07:30:37;;;;;;;;;;;;;;;5.05;100.00;97277.53;5012494;28;19917;-77
2021/12/04 07:33:03;;;;;;;;;;;;;;;5.11;100.00;97273.03;5035356;28;19947;-77
2021/12/04 07:35:28;;;;;;;;;;;;;;;4.96;100.00;97276.97;5034656;28;19918;-76
2021/12/04 07:37:54;;;;;;;;;;;;;;;5.28;100.00;97272.38;5033772;28;20461;-77
2021/12/04 07:40:19;;;;;;;;;;;;;;;5.39;100.00;97264.31;5036307;28;19917;-76
2021/12/04 07:42:45;;;;;;;;;;;;;;;5.13;100.00;97255.09;5032982;28;19965;-77
2021/12/04 07:45:10;;;;;;;;;;;;;;;4.92;100.00;97260.09;5034679;28;19916;-77
2021/12/04 07:47:35;;;;;;;;;;;;;;;4.88;100.00;97258.59;5033458;28;19929;-76
2021/12/04 07:50:02;;;;;;;;;;;;;;;5.24;100.00;97266.56;5032730;28;20493;-77
2021/12/04 07:52:28;;;;;;;;;;;;;;;5.67;100.00;97264.03;5033622;28;19943;-76
2021/12/04 07:54:53;;;;;;;;;;;;;;;5.28;100.00;97259.59;5031624;28;19917;-77
2021/12/04 07:57:20;;;;;;;;;;;;;;;5.17;100.00;97243.88;5029935;28;19967;-78
2021/12/04 07:59:45;;;;;;;;;;;;;;;5.48;100.00;97248.63;5028940;28;20351;-78
2021/12/04 08:02:12;;;;;;;;;;;;;;;5.19;100.00;97242.09;5028324;28;19963;-78
2021/12/04 08:04:38;;;;;;;;;;;;;;;5.33;100.00;97234.72;5030027;28;19925;-77
2021/12/04 08:07:03;;;;;;;;;;;;;;;5.06;100.00;97238.34;5028880;28;19920;-78
2021/12/04 08:09:28;;;;;;;;;;;;;;;5.10;100.00;97247.56;5030691;28;19923;-78
2021/12/04 08:11:54;;;;;;;;;;;;;;;5.13;100.00;97237.22;5014871;28;19970;-78
2021/12/04 08:14:19;;;;;;;;;;;;;;;5.24;100.00;97240.19;5007439;28;19920;-78
2021/12/04 08:16:46;;;;;;;;;;;;;;;5.20;100.00;97236.09;5015709;28;20430;-78
2021/12/04 08:19:12;;;;;;;;;;;;;;;5.13;100.00;97232.13;5033077;28;19917;-78
2021/12/04 08:21:38;;;;;;;;;;;;;;;5.24;100.00;97235.09;5034396;28;19917;-78
2021/12/04 08:24:05;;;;;;;;;;;;;;;5.42;100.00;97242.03;5032152;28;20521;-78
2021/12/04 08:26:31;;;;;;;;;;;;;;;5.25;100.00;97239.31;5015041;28;19920;-78
2021/12/04 08:28:57;;;;;;;;;;;;;;;5.53;100.00;97240.78;5016292;28;19917;-78
2021/12/04 08:31:22;;;;;;;;;;;;;;;5.19;100.00;97234.44;5030771;28;19964;-78
2021/12/04 08:33:47;;;;;;;;;;;;;;;5.30;100.00;97234.03;5031026;28;19960;-78
2021/12/04 08:36:13;;;;;;;;;;;;;;;4.92;100.00;97238.88;5030702;28;19917;-78
2021/12/04 08:38:38;;;;;;;;;;;;;;;5.05;100.00;97239.25;5032418;28;19917;-77
2021/12/04 08:41:05;;;;;;;;;;;;;;;5.75;100.00;97240.75;5033131;28;19961;-77
2021/12/04 08:43:30;;;;;;;;;;;;;;;5.30;100.00;97236.59;5034114;28;19916;-78
2021/12/04 08:45:59;;;;;;;;;;;;;;;5.34;100.00;97230.47;5033552;28;20000;-78
2021/12/04 08:48:25;;;;;;;;;;;;;;;5.26;100.00;97230.75;5033651;28;20011;-77
2021/12/04 08:50:50;;;;;;;;;;;;;;;5.75;100.00;97227.97;5031061;28;20351;-78
2021/12/04 08:53:15;;;;;;;;;;;;;;;5.54;100.00;97227.09;5031578;28;19925;-77
2021/12/04 08:55:43;;;;;;;;;;;;;;;6.10;100.00;97221.41;5032775;28;19916;-77
2021/12/04 08:58:08;;;;;;;;;;;;;;;5.35;100.00;97220.19;5029180;28;20252;-78
2021/12/04 09:00:38;;;;;;;;;;;;;;;5.77;100.00;97209.13;5032211;28;19921;-78
2021/12/04 09:03:05;;;;;;;;;;;;;;;5.72;100.00;97205.94;5032910;28;20005;-78
2021/12/04 09:05:30;;;;;;;;;;;;;;;4.93;100.00;97220.97;5030233;28;20408;-78
2021/12/04 09:07:56;;;;;;;;;;;;;;;4.95;100.00;97233.66;5031095;28;20381;-77
2021/12/04 09:10:21;;;;;;;;;;;;;;;5.39;100.00;97237.03;5025959;28;19974;-78
2021/12/04 09:12:47;;;;;;;;;;;;;;;5.62;100.00;97231.00;5013614;28;19969;-78
2021/12/04 09:15:14;;;;;;;;;;;;;;;5.64;100.00;97221.56;5031646;28;20020;-78
2021/12/04 09:17:39;;;;;;;;;;;;;;;5.44;100.00;97222.38;5032946;28;19917;-78
2021/12/04 09:20:05;;;;;;;;;;;;;;;5.57;100.00;97219.34;5028995;28;19921;-77
2021/12/04 09:22:34;;;;;;;;;;;;;;;5.60;100.00;97216.66;5027807;28;19934;-78
2021/12/04 09:25:01;;;;;;;;;;;;;;;5.44;100.00;97204.50;5028510;28;19932;-78
2021/12/04 09:28:09;;;;;;;;;;;;;;;5.15;100.00;97215.03;5031133;28;19925;-78
2021/12/04 09:35:37;;;;;;;;;;;;;;;5.47;100.00;97200.16;5027819;28;20465;-78
2021/12/04 09:59:57;;;;;;;;;;;;;;;5.61;100.00;97183.41;5025892;28;19967;-77
2021/12/04 10:18:47;;;;;;;;;;;;;;;5.08;100.00;97158.31;5025711;28;19967;-78
2021/12/04 10:21:30;;;;;;;;;;;;;;;5.55;100.00;97162.41;5029037;28;20035;-78
2021/12/04 10:34:40;;;;;;;;;;;;;;;5.16;100.00;97160.56;5028338;28;19994;-78
2021/12/04 10:37:23;;;;;;;;;;;;;;;5.21;100.00;97153.56;5012918;28;19924;-77
2021/12/04 10:39:49;;;;;;;;;;;;;;;5.41;100.00;97133.16;5029507;28;19924;-77
2021/12/04 10:42:18;;;;;;;;;;;;;;;5.13;100.00;97145.38;5030151;28;19925;-77
2021/12/04 10:44:50;;;;;;;;;;;;;;;5.33;100.00;97132.63;5025184;28;19925;-78
2021/12/04 10:47:22;;;;;;;;;;;;;;;5.63;100.00;97124.59;5027870;28;20019;-77
2021/12/04 10:52:17;;;;;;;;;;;;;;;5.59;100.00;97113.69;5028266;28;19931;-77
2021/12/04 10:54:43;;;;;;;;;;;;;;;6.07;100.00;97106.56;5027956;28;20019;-78
2021/12/04 10:58:18;;;;;;;;;;;;;;;5.72;100.00;97088.44;5029319;28;20539;-77
2021/12/04 11:00:08;;;;;;;;;;;;;;;6.09;100.00;97074.09;5025806;28;19932;-77
2021/12/04 11:02:35;;;;;;;;;;;;;;;6.33;100.00;97066.22;5029880;28;19917;-78
2021/12/04 11:05:25;;;;;;;;;;;;;;;6.32;100.00;97056.88;5027118;28;19929;-77
2021/12/04 11:24:51;;;;;;;;;;;;;;;7.34;100.00;97012.69;5030588;28;19996;-73
2021/12/04 11:27:45;;;;;;;;;;;;;;;6.32;100.00;97008.28;5029878;28;19975;-73
2021/12/04 11:38:31;;;;;;;;;;;;;;;7.50;100.00;96984.56;5030793;28;20039;-72
2021/12/04 11:43:23;;;;;;;;;;;;;;;7.97;100.00;96971.78;5027091;28;20287;-74
2021/12/04 11:48:28;;;;;;;;;;;;;;;7.69;100.00;96956.25;5025177;28;19975;-75
2021/12/04 11:50:53;;;;;;;;;;;;;;;7.77;100.00;96951.53;5028279;28;19928;-73
2021/12/04 11:53:20;;;;;;;;;;;;;;;7.92;100.00;96943.03;5026950;28;20298;-72
2021/12/04 11:55:46;;;;;;;;;;;;;;;7.05;100.00;96945.88;5009715;28;19917;-73
2021/12/04 11:58:20;;;;;;;;;;;;;;;7.27;100.00;96931.97;5031535;28;20003;-72
2021/12/04 12:00:46;;;;;;;;;;;;;;;7.05;100.00;96938.22;5030019;28;20309;-73
2021/12/04 12:03:16;;;;;;;;;;;;;;;6.97;100.00;96942.88;5033189;28;19921;-75
2021/12/04 12:05:55;;;;;;;;;;;;;;;7.65;100.00;96945.34;5031415;28;20474;-74
2021/12/04 12:08:20;;;;;;;;;;;;;;;7.56;100.00;96934.75;5033148;28;20644;-75
2021/12/04 12:10:49;;;;;;;;;;;;;;;7.90;100.00;96926.91;5030531;28;20355;-75
2021/12/04 12:13:22;;;;;;;;;;;;;;;7.79;100.00;96918.16;5032892;28;19957;-75
2021/12/04 12:15:55;;;;;;;;;;;;;;;7.56;100.00;96909.97;5026578;28;21290;-73
2021/12/04 12:18:22;;;;;;;;;;;;;;;7.80;100.00;96902.69;5033756;28;19916;-74
2021/12/04 12:21:01;;;;;;;;;;;;;;;7.82;100.00;96905.97;5031288;28;19979;-74
2021/12/04 12:23:30;;;;;;;;;;;;;;;8.19;100.00;96903.97;5030267;28;19928;-74
2021/12/04 12:26:13;;;;;;;;;;;;;;;8.36;100.00;96901.25;5029686;28;19933;-72
2021/12/04 12:37:15;;;;;;;;;;;;;;;7.76;100.00;96890.97;4998324;28;19923;-74
2021/12/04 12:39:57;;;;;;;;;;;;;;;7.81;100.00;96888.16;5026991;28;20509;-74
2021/12/04 12:42:30;;;;;;;;;;;;;;;7.97;100.00;96883.81;5009744;28;19952;-74
2021/12/04 12:45:13;;;;;;;;;;;;;;;7.77;100.00;96882.34;5028341;28;20016;-75
2021/12/04 12:47:46;;;;;;;;;;;;;;;8.02;100.00;96876.69;5026853;28;19975;-75
2021/12/04 12:50:13;;;;;;;;;;;;;;;7.85;100.00;96875.09;5028230;28;19991;-74
2021/12/04 12:52:42;;;;;;;;;;;;;;;7.39;100.00;96872.47;5030820;28;19917;-74
2021/12/04 12:55:09;;;;;;;;;;;;;;;7.30;100.00;96878.06;5028367;28;19965;-74
2021/12/04 12:57:36;;;;;;;;;;;;;;;6.99;100.00;96889.91;5028120;28;20030;-74
2021/12/04 13:13:51;;;;;;;;;;;;;;;7.89;100.00;96860.34;5031305;28;20458;-74
2021/12/04 13:16:18;;;;;;;;;;;;;;;8.04;100.00;96862.06;5029620;28;19921;-73
2021/12/04 13:18:57;;;;;;;;;;;;;;;7.12;100.00;96839.72;5028766;28;19928;-75
2021/12/04 13:21:24;;;;;;;;;;;;;;;7.88;100.00;96833.09;5030391;28;20067;-74
2021/12/04 13:23:50;;;;;;;;;;;;;;;7.52;100.00;96829.91;5029216;28;19970;-75
2021/12/04 13:26:15;;;;;;;;;;;;;;;7.13;100.00;96838.81;5030435;28;19921;-74
2021/12/04 13:28:42;;;;;;;;;;;;;;;7.77;100.00;96831.09;5030273;28;19957;-74
2021/12/04 13:31:08;;;;;;;;;;;;;;;8.22;100.00;96829.44;5010170;28;20629;-75
2021/12/04 13:33:37;;;;;;;;;;;;;;;8.24;100.00;96819.91;5015407;28;19912;-74
2021/12/04 13:36:03;;;;;;;;;;;;;;;7.94;100.00;96832.75;5028066;28;19987;-74
2021/12/04 13:38:29;;;;;;;;;;;;;;;8.05;100.00;96824.44;5030323;28;20015;-74
2021/12/04 13:40:54;;;;;;;;;;;;;;;8.05;100.00;96819.31;5029771;28;20106;-74
2021/12/04 13:43:20;;;;;;;;;;;;;;;8.03;100.00;96813.44;5029150;28;19925;-74
2021/12/04 13:45:46;;;;;;;;;;;;;;;7.38;100.00;96808.53;5010559;28;19947;-75
2021/12/04 13:48:12;;;;;;;;;;;;;;;7.52;100.00;96801.72;5010463;28;19965;-75
2021/12/04 13:53:07;;;;;;;;;;;;;;;7.44;100.00;96801.34;5030137;28;19962;-74
2021/12/04 13:55:35;;;;;;;;;;;;;;;7.32;100.00;96810.50;5005140;28;19944;-73
2021/12/04 13:58:04;;;;;;;;;;;;;;;7.00;100.00;96814.78;5028472;28;19921;-74
2021/12/04 14:00:29;;;;;;;;;;;;;;;6.85;100.00;96825.81;5028753;28;19944;-73
2021/12/04 14:02:54;;;;;;;;;;;;;;;6.85;100.00;96816.41;5028770;28;19917;-74
2021/12/04 14:05:21;;;;;;;;;;;;;;;6.72;100.00;96817.13;5028914;28;19928;-75
2021/12/04 14:07:47;;;;;;;;;;;;;;;6.58;100.00;96818.66;5027285;28;20011;-74
2021/12/04 14:10:14;;;;;;;;;;;;;;;7.21;100.00;96822.25;5013409;28;19921;-74
2021/12/04 14:12:39;;;;;;;;;;;;;;;7.52;100.00;96822.22;5028033;28;19940;-75
2021/12/04 14:15:11;;;;;;;;;;;;;;;7.29;100.00;96830.31;5027969;28;19917;-73
2021/12/04 14:17:36;;;;;;;;;;;;;;;7.47;100.00;96831.88;5027901;28;19927;-75
2021/12/04 14:20:03;;;;;;;;;;;;;;;7.71;100.00;96826.34;5028194;28;19984;-75
2021/12/04 14:22:28;;;;;;;;;;;;;;;7.86;100.00;96817.78;5030335;28;19921;-74
2021/12/04 14:24:58;;;;;;;;;;;;;;;7.83;100.00;96812.84;5028889;28;19920;-74
2021/12/04 14:27:24;;;;;;;;;;;;;;;7.40;100.00;96822.88;5027741;28;19953;-75
2021/12/04 14:29:54;;;;;;;;;;;;;;;7.26;100.00;96823.63;5024814;28;19928;-74
2021/12/04 14:32:23;;;;;;;;;;;;;;;7.20;100.00;96806.03;5025611;28;19924;-74
2021/12/04 14:34:53;;;;;;;;;;;;;;;7.41;100.00;96796.38;5030370;28;21752;-72
2021/12/04 14:37:19;;;;;;;;;;;;;;;7.45;100.00;96802.16;5034837;28;19918;-75
2021/12/04 14:39:45;;;;;;;;;;;;;;;7.95;100.00;96796.75;5016752;28;19943;-74
2021/12/04 14:42:13;;;;;;;;;;;;;;;7.02;100.00;96807.84;5031384;28;19923;-75
2021/12/04 14:44:38;;;;;;;;;;;;;;;7.07;100.00;96811.00;5034990;28;19943;-75
2021/12/04 14:47:05;;;;;;;;;;;;;;;7.36;100.00;96816.28;5031228;28;20294;-73
2021/12/04 14:49:30;;;;;;;;;;;;;;;7.38;100.00;96814.47;5035327;28;19921;-74
2021/12/04 14:51:56;;;;;;;;;;;;;;;6.41;100.00;96821.22;5027839;28;19924;-74
2021/12/04 14:54:28;;;;;;;;;;;;;;;7.10;100.00;96823.63;5032518;28;19920;-74
2021/12/04 14:56:53;;;;;;;;;;;;;;;6.68;100.00;96830.09;5031759;28;19917;-73
2021/12/04 14:59:19;;;;;;;;;;;;;;;7.47;100.00;96821.63;5031544;28;20179;-75
2021/12/04 15:01:44;;;;;;;;;;;;;;;6.95;100.00;96826.97;5029732;28;20382;-74
2021/12/04 15:04:10;;;;;;;;;;;;;;;7.79;100.00;96828.47;5031894;28;20013;-74
2021/12/04 15:06:39;;;;;;;;;;;;;;;7.57;100.00;96813.44;5033225;28;19916;-74
2021/12/04 15:09:09;;;;;;;;;;;;;;;7.68;100.00;96822.19;5034115;28;20127;-74
2021/12/04 15:11:35;;;;;;;;;;;;;;;7.32;100.00;96825.88;5034354;28;20002;-75
2021/12/04 15:14:07;;;;;;;;;;;;;;;7.57;100.00;96826.25;5032137;28;19948;-73
2021/12/04 15:16:37;;;;;;;;;;;;;;;7.42;100.00;96828.75;5031147;28;19925;-74
2021/12/04 15:19:05;;;;;;;;;;;;;;;7.33;100.00;96836.94;5030954;28;19917;-74
2021/12/04 15:21:35;;;;;;;;;;;;;;;7.42;100.00;96835.63;5031336;28;19921;-74
2021/12/04 15:24:00;;;;;;;;;;;;;;;7.66;100.00;96833.44;5033873;28;20639;-74
2021/12/04 15:26:26;;;;;;;;;;;;;;;7.61;100.00;96832.88;5029667;28;19921;-75
2021/12/04 15:28:52;;;;;;;;;;;;;;;7.70;100.00;96834.94;5032723;28;21028;-74
2021/12/04 15:31:19;;;;;;;;;;;;;;;7.57;100.00;96824.50;5031334;28;20019;-74
2021/12/04 15:33:48;;;;;;;;;;;;;;;7.69;100.00;96835.84;5030926;28;20446;-74
2021/12/04 15:36:25;;;;;;;;;;;;;;;7.77;100.00;96841.34;5031104;28;19921;-74
2021/12/04 15:38:52;;;;;;;;;;;;;;;8.06;100.00;96836.34;5036029;28;19921;-74
2021/12/04 15:49:47;;;;;;;;;;;;;;;7.85;100.00;96844.34;5027614;28;19975;-74